Time;durP1;ratioP1;P1;durP2;ratioP2;P2;SDS_P1;SDS_P2;PMS_P1;PMS_P2;Temp;Humidity;BMP_temperature;BMP_pressure;BME280_temperature;BME280_humidity;BME280_pressure;Samples;Min_cycle;Max_cycle;Signal;HPM_P1;HPM_P2
2021/08/27 00:02:13;;;;;;;9.88;2.30;;;;;;;17.71;58.06;100975.81;4988546;28;119866;-75
2021/08/27 00:04:38;;;;;;;7.32;2.00;;;;;;;17.72;57.96;100977.31;5005445;27;120412;-75
2021/08/27 00:07:04;;;;;;;10.05;2.15;;;;;;;17.77;58.20;100976.63;5004490;27;123364;-75
2021/08/27 00:09:30;;;;;;;8.68;2.45;;;;;;;17.82;57.94;100977.16;5003155;27;122953;-75
2021/08/27 00:11:56;;;;;;;4.38;2.00;;;;;;;17.78;57.95;100974.63;5004101;27;120001;-75
2021/08/27 00:14:21;;;;;;;6.22;2.05;;;;;;;17.84;58.06;100966.31;5003305;27;120709;-76
2021/08/27 00:16:47;;;;;;;8.43;2.40;;;;;;;17.87;57.69;100968.09;5005454;27;119767;-75
2021/08/27 00:19:15;;;;;;;4.32;1.80;;;;;;;17.88;58.10;100956.50;5001445;27;121001;-75
2021/08/27 00:21:47;;;;;;;6.38;2.30;;;;;;;17.89;58.11;100960.81;5004200;27;119802;-75
2021/08/27 00:24:13;;;;;;;8.50;1.92;;;;;;;17.92;57.96;100959.06;5004365;27;119853;-74
2021/08/27 00:26:38;;;;;;;6.45;2.25;;;;;;;17.86;57.98;100944.38;5003459;27;119824;-75
2021/08/27 00:29:04;;;;;;;7.85;2.08;;;;;;;17.97;57.65;100952.78;4983594;28;119948;-76
2021/08/27 00:31:30;;;;;;;8.63;2.20;;;;;;;18.00;58.03;100949.03;4981714;28;121469;-75
2021/08/27 00:33:57;;;;;;;6.40;2.10;;;;;;;18.02;57.80;100947.28;5004259;27;120446;-75
2021/08/27 00:36:22;;;;;;;6.00;2.30;;;;;;;18.03;58.39;100942.50;5002763;27;119529;-75
2021/08/27 00:38:48;;;;;;;10.13;2.95;;;;;;;18.09;57.74;100951.59;4998280;27;120675;-75
2021/08/27 00:41:17;;;;;;;4.55;1.85;;;;;;;18.13;58.23;100946.56;4997629;28;120087;-75
2021/08/27 00:43:42;;;;;;;6.18;1.95;;;;;;;18.07;57.88;100938.22;5002871;27;120024;-76
2021/08/27 00:46:08;;;;;;;5.93;2.22;;;;;;;18.20;57.59;100957.19;5004792;27;119645;-75
2021/08/27 00:48:34;;;;;;;9.18;2.97;;;;;;;18.19;57.77;100941.81;5002000;27;120065;-75
2021/08/27 00:50:59;;;;;;;6.30;2.08;;;;;;;18.25;57.96;100956.50;4982992;28;122118;-75
2021/08/27 00:53:25;;;;;;;8.60;2.05;;;;;;;18.26;57.53;100958.00;5004184;27;120501;-75
2021/08/27 00:55:52;;;;;;;7.13;1.95;;;;;;;18.27;57.54;100962.31;5004214;27;119569;-75
2021/08/27 00:58:18;;;;;;;10.48;2.28;;;;;;;18.19;57.60;100941.81;4972108;28;120724;-75
2021/08/27 01:00:45;;;;;;;6.05;2.05;;;;;;;18.28;57.33;100955.50;5002480;27;120257;-75
2021/08/27 01:03:14;;;;;;;7.30;2.03;;;;;;;18.27;57.77;100950.44;5001621;27;120618;-75
2021/08/27 01:05:45;;;;;;;9.52;2.30;;;;;;;18.36;57.93;100947.44;5002528;27;119633;-75
2021/08/27 01:08:27;;;;;;;8.60;2.35;;;;;;;18.41;57.69;100950.25;4998656;28;119699;-75
2021/08/27 01:11:02;;;;;;;7.13;2.35;;;;;;;18.46;57.72;100945.22;5007913;27;119608;-75
2021/08/27 01:13:37;;;;;;;6.40;2.25;;;;;;;18.48;57.77;100945.50;5002192;27;120009;-75
2021/08/27 01:16:23;;;;;;;8.40;2.58;;;;;;;18.40;57.26;100937.63;5004269;27;119684;-76
2021/08/27 01:19:11;;;;;;;6.50;2.47;;;;;;;18.40;57.14;100932.06;5003725;27;121339;-75
2021/08/27 01:22:02;;;;;;;6.00;1.85;;;;;;;18.36;57.19;100931.53;5005698;27;119794;-75
2021/08/27 01:24:30;;;;;;;7.78;2.42;;;;;;;18.34;57.73;100930.53;5006072;27;122491;-74
2021/08/27 01:27:01;;;;;;;5.72;2.20;;;;;;;18.28;57.50;100927.72;5006311;28;119310;-75
2021/08/27 01:29:36;;;;;;;5.22;2.20;;;;;;;18.30;57.59;100927.22;5009670;27;119596;-75
2021/08/27 01:32:08;;;;;;;5.55;1.77;;;;;;;18.24;57.66;100927.22;4986695;27;120914;-76
2021/08/27 01:34:41;;;;;;;5.80;1.90;;;;;;;18.21;57.93;100930.97;4982270;28;119724;-74
2021/08/27 01:37:11;;;;;;;6.75;1.92;;;;;;;18.20;57.97;100939.78;5003491;27;121125;-75
2021/08/27 01:39:43;;;;;;;5.63;2.05;;;;;;;18.19;57.93;100927.91;5009248;27;120132;-74
2021/08/27 01:42:12;;;;;;;6.50;2.00;;;;;;;18.21;58.08;100925.41;5028244;22;119624;-95
2021/08/27 01:44:43;;;;;;;5.80;2.00;;;;;;;18.00;58.13;100901.84;5005682;27;119355;-96
2021/08/27 01:47:12;;;;;;;5.93;1.88;;;;;;;18.17;58.06;100936.00;4987678;27;121784;-96
2021/08/27 01:49:38;;;;;;;6.07;1.90;;;;;;;18.02;58.20;100916.75;4986060;27;121044;-96
2021/08/27 01:52:08;;;;;;;8.57;2.20;;;;;;;18.12;58.31;100933.94;4984443;27;122213;-96
2021/08/27 01:54:36;;;;;;;4.93;1.70;;;;;;;18.16;58.66;100931.69;4985304;27;119118;-95
2021/08/27 01:57:03;;;;;;;9.52;2.13;;;;;;;18.19;58.69;100946.59;5001524;27;120954;-96
2021/08/27 01:59:35;;;;;;;4.75;1.75;;;;;;;18.09;58.58;100913.50;4983152;27;122082;-95
2021/08/27 02:02:02;;;;;;;7.93;2.00;;;;;;;18.14;58.78;100925.13;4986740;27;118793;-96
2021/08/27 02:04:31;;;;;;;5.05;2.15;;;;;;;17.91;58.48;100893.72;4986373;27;121347;-96
2021/08/27 02:06:57;;;;;;;7.53;1.65;;;;;;;17.99;58.42;100911.44;4988430;27;122132;-96
2021/08/27 02:09:24;;;;;;;6.90;1.70;;;;;;;18.03;58.64;100911.97;4988485;27;121411;-94
2021/08/27 02:11:51;;;;;;;7.13;2.08;;;;;;;18.12;58.70;100931.16;4981572;27;122187;-96
2021/08/27 02:14:18;;;;;;;7.07;1.65;;;;;;;18.23;58.94;100949.91;4986497;27;118792;-96
2021/08/27 02:16:44;;;;;;;5.82;1.83;;;;;;;18.21;58.68;100942.06;5002094;27;120896;-96
2021/08/27 02:19:10;;;;;;;3.53;1.40;;;;;;;18.19;58.75;100939.03;4997719;27;122301;-96
2021/08/27 02:21:41;;;;;;;3.97;1.45;;;;;;;18.18;58.87;100945.06;5000982;27;120775;-96
2021/08/27 02:24:12;;;;;;;7.93;1.58;;;;;;;18.20;58.90;100935.00;4984818;27;120929;-96
2021/08/27 02:26:42;;;;;;;4.90;1.35;;;;;;;18.08;59.33;100919.53;4984158;27;124137;-96
2021/08/27 02:29:08;;;;;;;4.28;1.50;;;;;;;18.23;59.43;100945.13;4985758;27;120092;-96
2021/08/27 02:31:34;;;;;;;4.88;1.70;;;;;;;18.07;59.38;100916.00;4982819;27;122144;-96
2021/08/27 02:34:00;;;;;;;6.15;1.40;;;;;;;18.22;59.46;100938.06;5015376;27;120107;-96
2021/08/27 02:36:27;;;;;;;6.80;1.60;;;;;;;18.23;59.88;100939.56;4998200;27;121250;-96
2021/08/27 02:38:55;;;;;;;14.68;1.90;;;;;;;18.06;59.67;100928.38;4999059;27;122096;-96
2021/08/27 02:41:22;;;;;;;5.65;1.67;;;;;;;18.18;59.54;100958.97;4985275;27;120863;-95
2021/08/27 02:43:48;;;;;;;7.55;1.45;;;;;;;18.08;60.07;100939.75;4984605;27;120940;-95
2021/08/27 02:46:14;;;;;;;3.80;1.60;;;;;;;18.19;60.40;100952.91;4986619;27;122316;-95
2021/08/27 02:48:40;;;;;;;9.70;1.92;;;;;;;18.00;60.32;100910.94;4984642;27;119479;-95
2021/08/27 02:51:22;;;;;;;8.30;1.80;;;;;;;17.94;60.08;100907.34;4988744;27;120951;-96
2021/08/27 02:53:52;;;;;;;7.15;1.77;;;;;;;18.17;60.56;100944.31;5001069;27;119056;-96
2021/08/27 02:56:26;;;;;;;5.05;1.80;;;;;;;18.19;60.42;100941.03;4985491;27;121224;-96
2021/08/27 02:58:57;;;;;;;3.17;1.48;;;;;;;18.08;60.53;100936.19;4986067;27;122130;-96
2021/08/27 03:01:37;;;;;;;4.05;1.80;;;;;;;18.21;60.41;100944.84;4985366;27;120249;-96
2021/08/27 03:04:13;;;;;;;5.90;1.92;;;;;;;18.19;60.05;100941.81;4980337;27;120836;-96
2021/08/27 03:06:48;;;;;;;4.68;1.58;;;;;;;18.06;59.96;100930.38;5000240;27;122105;-96
2021/08/27 03:09:18;;;;;;;5.03;1.48;;;;;;;17.78;59.96;100892.13;4999628;27;118833;-96
2021/08/27 03:11:54;;;;;;;5.18;1.80;;;;;;;18.17;60.20;100949.88;5003522;27;120847;-96
2021/08/27 03:14:38;;;;;;;7.75;1.80;;;;;;;18.19;60.02;100955.69;5002523;27;118927;-95
2021/08/27 03:17:09;;;;;;;4.93;1.80;;;;;;;18.02;60.36;100936.19;4985279;28;121164;-96
2021/08/27 03:19:43;;;;;;;7.03;1.58;;;;;;;17.97;60.33;100916.69;4996327;28;122216;-96
2021/08/27 03:22:25;;;;;;;7.45;1.80;;;;;;;18.08;60.19;100936.97;4996322;27;118803;-94
2021/08/27 03:25:03;;;;;;;4.22;1.83;;;;;;;18.06;60.37;100941.50;4983864;27;121334;-96
2021/08/27 03:27:34;;;;;;;6.05;2.08;;;;;;;18.09;60.74;100951.59;4997303;27;122087;-96
2021/08/27 03:30:05;;;;;;;5.40;1.63;;;;;;;18.07;60.73;100945.78;4998565;27;118703;-95
2021/08/27 03:32:31;;;;;;;6.88;1.77;;;;;;;18.04;60.74;100949.56;4983929;27;121235;-96
2021/08/27 03:34:58;;;;;;;6.07;1.67;;;;;;;17.84;61.17;100921.94;4986309;27;122310;-96
2021/08/27 03:37:25;;;;;;;5.95;1.52;;;;;;;17.76;61.23;100908.53;4982216;27;121104;-96
2021/08/27 03:39:52;;;;;;;4.90;1.98;;;;;;;17.93;61.45;100935.59;4998381;27;123110;-95
2021/08/27 03:42:19;;;;;;;4.07;1.35;;;;;;;17.94;61.78;100945.44;4983867;27;120750;-95
2021/08/27 03:44:47;;;;;;;3.10;1.50;;;;;;;17.68;61.69;100896.34;4984132;27;121189;-94
2021/08/27 03:47:15;;;;;;;6.50;1.90;;;;;;;17.92;61.98;100931.31;4982436;27;122279;-96
2021/08/27 03:49:43;;;;;;;5.80;1.90;;;;;;;17.68;61.74;100885.25;4998702;27;118689;-95
2021/08/27 03:52:10;;;;;;;4.28;1.50;;;;;;;17.66;61.85;100884.94;4998195;27;120527;-95
2021/08/27 03:54:36;;;;;;;4.53;1.50;;;;;;;17.97;62.10;100930.56;4999533;27;122312;-96
2021/08/27 03:57:02;;;;;;;4.55;1.70;;;;;;;17.90;62.17;100914.38;4988423;27;118707;-96
2021/08/27 03:59:30;;;;;;;4.70;2.00;;;;;;;17.85;61.93;100912.34;4987474;27;122104;-96
2021/08/27 04:01:57;;;;;;;4.47;1.73;;;;;;;18.01;61.90;100931.88;4984234;27;120734;-96
2021/08/27 04:04:23;;;;;;;5.63;1.58;;;;;;;17.99;62.23;100936.41;4984603;27;120891;-95
2021/08/27 04:06:56;;;;;;;6.43;1.60;;;;;;;18.03;62.37;100937.69;4989869;27;122054;-93
2021/08/27 04:09:22;;;;;;;5.38;1.60;;;;;;;18.03;62.33;100926.59;4984527;27;118685;-94
2021/08/27 04:11:49;;;;;;;5.85;1.92;;;;;;;17.91;62.52;100908.34;4984051;27;120933;-96
2021/08/27 04:14:15;;;;;;;6.30;1.95;;;;;;;18.00;62.62;100926.81;4996721;27;121631;-96
2021/08/27 04:16:42;;;;;;;6.63;2.03;;;;;;;17.90;62.75;100911.63;4998080;27;121344;-96
2021/08/27 04:19:07;;;;;;;5.13;2.10;;;;;;;17.78;62.70;100894.91;4986054;27;120895;-95
2021/08/27 04:21:33;;;;;;;6.15;2.10;;;;;;;17.83;62.78;100895.44;4985298;27;120688;-95
2021/08/27 04:23:58;;;;;;;3.90;2.08;;;;;;;17.90;62.55;100915.16;4984246;27;120866;-95
2021/08/27 04:26:27;;;;;;;7.30;2.38;;;;;;;18.07;62.95;100943.78;4982585;28;122189;-94
2021/08/27 04:28:52;;;;;;;6.47;2.08;;;;;;;18.06;62.87;100933.16;4984151;27;119619;-96
2021/08/27 04:31:18;;;;;;;5.28;2.03;;;;;;;18.13;62.44;100929.16;4996642;27;121025;-96
2021/08/27 04:33:44;;;;;;;7.72;1.90;;;;;;;18.16;62.63;100940.03;4981017;27;121920;-96
2021/08/27 04:36:09;;;;;;;3.72;2.00;;;;;;;18.08;62.82;100922.31;4998303;27;120467;-96
2021/08/27 04:38:35;;;;;;;7.80;2.20;;;;;;;17.94;62.70;100906.59;4998875;27;121235;-95
2021/08/27 04:41:01;;;;;;;7.78;2.58;;;;;;;18.21;62.72;100942.06;4987081;27;122071;-95
2021/08/27 04:43:26;;;;;;;5.35;2.20;;;;;;;17.99;62.34;100914.22;4999442;27;121129;-96
2021/08/27 04:45:52;;;;;;;4.75;2.05;;;;;;;18.14;62.78;100923.09;4978182;27;123035;-96
2021/08/27 04:48:20;;;;;;;6.32;2.00;;;;;;;18.16;62.63;100917.81;4983424;27;118752;-94
2021/08/27 04:50:46;;;;;;;5.35;2.20;;;;;;;18.27;62.38;100942.88;4980397;27;121121;-95
2021/08/27 04:53:11;;;;;;;7.47;2.58;;;;;;;18.25;62.52;100941.84;4979252;28;122283;-95
2021/08/27 04:55:37;;;;;;;5.60;1.95;;;;;;;18.11;62.74;100926.88;5004357;27;119538;-96
2021/08/27 04:58:03;;;;;;;6.70;2.25;;;;;;;18.26;62.79;100943.38;4976413;27;120569;-95
2021/08/27 05:00:29;;;;;;;6.25;2.33;;;;;;;18.08;62.85;100923.09;4997807;27;122207;-96
2021/08/27 05:02:54;;;;;;;6.88;1.98;;;;;;;18.02;62.25;100913.22;4988756;27;118615;-96
2021/08/27 05:05:20;;;;;;;6.13;1.98;;;;;;;18.27;62.28;100945.66;4981012;27;122192;-96
2021/08/27 05:07:46;;;;;;;7.82;2.40;;;;;;;18.19;62.25;100936.25;4983713;27;119167;-96
2021/08/27 05:10:12;;;;;;;6.40;2.15;;;;;;;18.28;62.38;100952.72;5000075;27;120902;-96
2021/08/27 05:12:37;;;;;;;7.03;2.10;;;;;;;18.15;62.39;100935.72;4981267;27;122169;-95
2021/08/27 05:15:05;;;;;;;5.55;2.28;;;;;;;18.38;62.34;100967.91;4981880;27;118757;-96
2021/08/27 05:17:31;;;;;;;7.53;2.20;;;;;;;18.34;62.60;100961.81;4999331;27;121100;-96
2021/08/27 05:19:56;;;;;;;4.75;1.70;;;;;;;18.35;62.35;100971.69;4981013;27;122341;-95
2021/08/27 05:22:24;;;;;;;7.22;2.33;;;;;;;18.18;62.43;100945.84;4989314;27;121158;-95
2021/08/27 05:24:50;;;;;;;5.50;2.22;;;;;;;18.40;62.38;100973.72;4982462;27;121910;-95
2021/08/27 05:27:15;;;;;;;4.75;2.38;;;;;;;18.44;62.48;100981.06;4998995;27;119379;-96
2021/08/27 05:29:41;;;;;;;9.38;2.22;;;;;;;18.24;62.62;100946.66;4981440;27;120925;-96
2021/08/27 05:32:25;;;;;;;4.65;1.98;;;;;;;18.35;62.35;100957.78;4975790;27;122083;-96
2021/08/27 05:34:51;;;;;;;4.38;2.00;;;;;;;18.44;62.05;100975.50;4981897;27;118977;-96
2021/08/27 05:37:18;;;;;;;7.72;2.38;;;;;;;18.25;62.55;100942.63;4998773;27;120770;-96
2021/08/27 05:39:44;;;;;;;5.68;2.50;;;;;;;18.49;62.25;100975.53;4982141;27;122167;-96
2021/08/27 05:42:09;;;;;;;7.18;2.58;;;;;;;18.47;62.48;100968.97;4995873;27;118784;-96
2021/08/27 05:44:35;;;;;;;7.78;2.75;;;;;;;18.50;62.55;100976.31;4996107;27;120854;-95
2021/08/27 05:47:00;;;;;;;10.02;2.63;;;;;;;18.17;62.25;100933.22;4993975;27;119692;-96
2021/08/27 05:49:26;;;;;;;5.18;2.33;;;;;;;18.36;62.39;100953.00;4983741;27;120765;-96
2021/08/27 05:51:52;;;;;;;5.93;2.45;;;;;;;18.53;62.46;101000.31;4997044;27;122043;-95
2021/08/27 05:54:17;;;;;;;7.63;3.00;;;;;;;18.40;62.51;100967.41;4982275;27;119104;-96
2021/08/27 05:56:45;;;;;;;7.88;2.40;;;;;;;18.50;62.67;100996.50;4996729;27;120775;-96
2021/08/27 05:59:11;;;;;;;7.05;2.78;;;;;;;18.51;62.76;100986.16;4996759;28;122175;-96
2021/08/27 06:01:37;;;;;;;6.85;2.50;;;;;;;18.53;62.58;100983.63;4980908;27;119041;-95
2021/08/27 06:04:03;;;;;;;5.88;2.42;;;;;;;18.54;62.73;100982.38;4978834;27;121051;-96
2021/08/27 06:06:28;;;;;;;10.45;3.10;;;;;;;18.57;62.65;101000.81;4985643;27;122220;-96
2021/08/27 06:08:54;;;;;;;6.63;2.30;;;;;;;18.32;62.59;100950.47;4982658;28;121045;-94
2021/08/27 06:11:20;;;;;;;7.38;2.20;;;;;;;18.59;62.80;100995.53;4997621;28;122144;-94
2021/08/27 06:13:45;;;;;;;6.97;2.40;;;;;;;18.65;62.69;100990.78;4983695;27;119335;-95
2021/08/27 06:16:11;;;;;;;6.50;2.50;;;;;;;18.66;62.59;100997.84;4984838;27;121020;-96
2021/08/27 06:18:36;;;;;;;4.72;2.30;;;;;;;18.58;62.75;100986.44;5001769;27;122056;-93
2021/08/27 06:21:02;;;;;;;5.55;2.67;;;;;;;18.59;62.57;100989.97;4980883;27;119218;-94
2021/08/27 06:23:28;;;;;;;8.57;2.63;;;;;;;18.57;62.47;100984.16;4980754;28;121117;-95
2021/08/27 06:25:53;;;;;;;5.90;2.17;;;;;;;18.61;62.75;100996.53;4983253;27;122301;-95
2021/08/27 06:28:19;;;;;;;8.35;2.78;;;;;;;18.61;62.89;100979.88;5006330;27;119883;-95
2021/08/27 06:30:44;;;;;;;6.95;2.80;;;;;;;18.64;62.88;100990.00;4986138;28;122084;-95
2021/08/27 06:33:10;;;;;;;5.90;2.53;;;;;;;18.72;63.01;100992.34;4983211;27;119260;-96
2021/08/27 06:35:36;;;;;;;4.28;2.30;;;;;;;18.69;63.43;100996.84;4983844;28;121144;-95
2021/08/27 06:38:21;;;;;;;7.97;2.58;;;;;;;18.51;63.06;100973.03;5002087;27;122093;-96
2021/08/27 06:40:50;;;;;;;7.75;2.55;;;;;;;18.44;63.41;100961.63;4988448;27;118728;-96
2021/08/27 06:43:15;;;;;;;5.88;2.17;;;;;;;18.65;63.48;100996.34;4991018;27;120519;-96
2021/08/27 06:45:41;;;;;;;8.80;2.63;;;;;;;18.51;63.60;100986.16;4983522;27;122784;-95
2021/08/27 06:48:07;;;;;;;5.20;2.17;;;;;;;18.54;64.09;100999.03;4986314;27;121417;-96
2021/08/27 06:50:32;;;;;;;8.88;2.55;;;;;;;18.55;64.29;101006.13;4988605;28;120832;-96
2021/08/27 06:53:01;;;;;;;8.20;2.60;;;;;;;18.52;64.62;101012.66;5002335;27;119075;-94
2021/08/27 06:55:27;;;;;;;3.80;2.00;;;;;;;18.39;64.83;100999.97;4999744;27;122288;-95
2021/08/27 06:57:52;;;;;;;5.90;2.17;;;;;;;18.41;64.88;100993.91;5000430;27;122031;-96
2021/08/27 07:00:18;;;;;;;6.10;2.60;;;;;;;18.58;65.03;101021.78;4992771;27;119571;-96
2021/08/27 07:02:44;;;;;;;4.80;2.20;;;;;;;18.36;64.81;100978.75;4997025;27;121052;-96
2021/08/27 07:05:10;;;;;;;6.18;2.05;;;;;;;18.59;65.17;101010.19;4988420;28;121718;-96
2021/08/27 07:07:36;;;;;;;5.88;2.30;;;;;;;18.53;65.08;101008.63;4996637;27;120132;-95
2021/08/27 07:10:04;;;;;;;7.03;2.40;;;;;;;18.53;65.05;101000.31;5015496;27;121009;-94
2021/08/27 07:12:29;;;;;;;5.22;2.10;;;;;;;18.57;64.94;101006.38;4998727;27;119114;-96
2021/08/27 07:14:55;;;;;;;4.43;2.30;;;;;;;18.60;65.42;101014.47;4998792;27;120994;-96
2021/08/27 07:17:21;;;;;;;4.22;2.20;;;;;;;18.40;65.77;100992.41;5003519;27;122005;-96
2021/08/27 07:19:47;;;;;;;6.93;2.40;;;;;;;18.24;65.69;100968.84;5015061;27;118583;-96
2021/08/27 07:22:13;;;;;;;6.05;2.42;;;;;;;18.28;66.01;100979.72;5005889;27;121246;-96
2021/08/27 07:24:39;;;;;;;4.97;2.17;;;;;;;18.31;66.10;100989.84;4993696;28;122029;-96
2021/08/27 07:27:05;;;;;;;4.03;2.10;;;;;;;18.54;66.19;101026.81;4996132;28;119275;-96
2021/08/27 07:29:31;;;;;;;3.25;1.92;;;;;;;18.42;66.10;101004.53;4988590;27;121649;-96
2021/08/27 07:31:56;;;;;;;4.25;1.90;;;;;;;18.55;66.35;101033.91;4996938;27;122283;-96
2021/08/27 07:34:22;;;;;;;3.17;1.85;;;;;;;18.53;66.55;101022.53;5011002;27;121283;-96
2021/08/27 07:36:48;;;;;;;2.05;1.65;;;;;;;18.21;66.43;100978.16;4996777;27;122113;-96
2021/08/27 07:39:13;;;;;;;3.55;1.85;;;;;;;18.57;66.38;101034.16;4990305;28;119929;-95
2021/08/27 07:41:39;;;;;;;3.25;1.77;;;;;;;18.31;67.00;100987.06;5012283;27;120927;-96
2021/08/27 07:44:05;;;;;;;2.97;1.40;;;;;;;18.64;67.11;101031.69;5022040;22;120766;-75
2021/08/27 07:46:31;;;;;;;4.38;1.80;;;;;;;18.69;66.87;101030.97;4966376;28;124643;-74
2021/08/27 07:48:57;;;;;;;3.25;1.77;;;;;;;18.69;66.83;101022.66;4962288;28;122276;-75
2021/08/27 07:51:22;;;;;;;3.30;1.33;;;;;;;18.73;67.17;101039.06;4947738;28;121948;-75
2021/08/27 07:53:48;;;;;;;3.38;1.70;;;;;;;18.70;66.76;101028.97;4982205;28;120637;-75
2021/08/27 07:56:14;;;;;;;4.00;1.83;;;;;;;18.69;66.74;101030.19;4981423;28;120903;-76
2021/08/27 07:58:39;;;;;;;4.40;1.98;;;;;;;18.68;66.80;101045.34;4948303;28;120517;-74
2021/08/27 08:01:05;;;;;;;4.75;2.40;;;;;;;18.65;66.40;101036.00;4979479;28;120180;-76
2021/08/27 08:03:30;;;;;;;4.97;2.22;;;;;;;18.66;66.54;101045.09;4978556;28;120874;-76
2021/08/27 08:05:56;;;;;;;3.53;2.35;;;;;;;18.64;66.75;101050.38;4959047;28;121470;-75
2021/08/27 08:08:22;;;;;;;5.00;2.25;;;;;;;18.62;66.68;101052.88;4962681;28;120363;-75
2021/08/27 08:10:47;;;;;;;5.72;2.63;;;;;;;18.65;66.80;101052.66;4950641;28;121692;-76
2021/08/27 08:13:13;;;;;;;7.93;2.80;;;;;;;18.68;66.70;101053.69;4972740;28;120126;-75
2021/08/27 08:15:38;;;;;;;7.40;2.70;;;;;;;18.65;66.55;101047.09;4986330;28;119533;-76
2021/08/27 08:18:04;;;;;;;6.22;2.60;;;;;;;18.68;66.79;101057.22;4962770;28;120870;-75
2021/08/27 08:20:30;;;;;;;5.70;2.67;;;;;;;18.72;66.63;101056.25;4983154;28;120088;-75
2021/08/27 08:22:57;;;;;;;5.60;2.78;;;;;;;18.70;66.71;101059.53;4959035;28;119599;-75
2021/08/27 08:25:23;;;;;;;7.05;2.85;;;;;;;18.72;66.54;101064.59;4964229;28;119718;-76
2021/08/27 08:27:49;;;;;;;6.15;3.00;;;;;;;18.71;66.65;101063.81;4948807;28;122210;-76
2021/08/27 08:30:14;;;;;;;8.07;2.88;;;;;;;18.73;66.80;101069.66;4958959;28;120202;-75
2021/08/27 08:32:40;;;;;;;8.73;3.15;;;;;;;18.75;66.82;101067.13;4962573;28;119935;-75
2021/08/27 08:35:06;;;;;;;6.32;2.60;;;;;;;18.79;66.80;101073.19;4966613;28;120633;-75
2021/08/27 08:37:32;;;;;;;9.02;2.97;;;;;;;18.79;66.61;101075.97;4963338;28;120851;-76
2021/08/27 08:39:58;;;;;;;5.78;3.03;;;;;;;18.83;66.58;101073.72;4961028;28;122549;-75
2021/08/27 08:42:24;;;;;;;6.78;3.20;;;;;;;18.86;66.71;101083.84;4945957;28;120519;-75
2021/08/27 08:44:49;;;;;;;7.88;3.35;;;;;;;18.88;66.47;101077.78;4966445;28;119608;-75
2021/08/27 08:47:20;;;;;;;7.25;3.03;;;;;;;18.89;66.47;101077.28;4942206;28;121513;-75
2021/08/27 08:49:47;;;;;;;6.60;2.90;;;;;;;18.88;66.34;101072.97;4980565;28;119554;-75
2021/08/27 08:52:20;;;;;;;8.38;3.30;;;;;;;18.93;66.42;101077.81;4968761;28;120187;-76
2021/08/27 08:54:50;;;;;;;6.50;3.20;;;;;;;18.96;66.25;101085.16;4928618;28;121421;-75
2021/08/27 08:57:20;;;;;;;6.00;2.85;;;;;;;18.94;66.19;101067.47;4964749;28;121134;-75
2021/08/27 08:59:46;;;;;;;7.47;2.75;;;;;;;19.04;66.39;101088.22;4987514;28;120232;-76
2021/08/27 09:02:11;;;;;;;6.97;3.25;;;;;;;19.03;66.16;101092.25;4965974;28;120103;-76
2021/08/27 09:04:37;;;;;;;9.10;3.00;;;;;;;18.97;66.26;101086.69;4980610;28;120003;-75
2021/08/27 09:07:03;;;;;;;5.70;3.38;;;;;;;18.96;66.48;101092.75;4965694;28;121092;-76
2021/08/27 09:09:30;;;;;;;6.88;3.00;;;;;;;18.97;66.13;101097.81;4934834;28;121374;-76
2021/08/27 09:11:57;;;;;;;7.40;3.30;;;;;;;18.98;66.45;101104.13;4980848;28;120063;-76
2021/08/27 09:14:30;;;;;;;6.80;3.03;;;;;;;18.94;66.07;101090.47;4966691;28;120794;-76
2021/08/27 09:17:05;;;;;;;10.10;3.43;;;;;;;18.99;66.39;101094.53;4979977;28;120478;-75
2021/08/27 09:19:53;;;;;;;6.22;3.10;;;;;;;18.99;66.48;101098.06;4968380;28;119759;-75
2021/08/27 09:22:20;;;;;;;6.35;2.97;;;;;;;18.99;66.19;101092.50;4946238;28;120251;-75
2021/08/27 09:25:04;;;;;;;6.18;3.15;;;;;;;19.04;66.20;101093.03;4981047;28;120676;-76
2021/08/27 09:27:31;;;;;;;13.45;4.25;;;;;;;19.06;66.26;101105.16;4981298;28;119858;-76
2021/08/27 09:29:58;;;;;;;9.38;3.55;;;;;;;19.11;66.27;101109.22;4947184;28;120338;-76
2021/08/27 09:32:28;;;;;;;7.20;3.53;;;;;;;19.14;66.28;101099.88;4975757;28;120080;-75
2021/08/27 09:35:07;;;;;;;8.30;3.65;;;;;;;19.20;66.23;101100.69;4979659;28;119774;-76
2021/08/27 09:37:43;;;;;;;9.02;3.92;;;;;;;19.27;66.16;101111.31;4977114;28;119900;-76
2021/08/27 09:40:12;;;;;;;6.53;3.58;;;;;;;19.33;66.07;101109.31;4963148;28;119930;-76
2021/08/27 09:42:45;;;;;;;9.15;3.72;;;;;;;19.47;66.01;101119.47;4952022;28;120545;-76
2021/08/27 09:45:11;;;;;;;7.18;3.25;;;;;;;19.52;66.23;101115.19;4966059;28;119831;-76
2021/08/27 09:47:38;;;;;;;7.90;3.63;;;;;;;19.56;66.18;101104.59;4968447;28;125217;-76
2021/08/27 09:50:23;;;;;;;6.80;3.08;;;;;;;19.64;66.16;101122.34;4964366;28;120745;-75
2021/08/27 09:53:02;;;;;;;9.60;3.72;;;;;;;19.72;66.01;101122.59;4969968;28;121523;-75
2021/08/27 09:55:29;;;;;;;7.68;3.53;;;;;;;19.77;65.75;101122.59;4952132;28;120965;-76
2021/08/27 09:58:10;;;;;;;14.00;3.50;;;;;;;19.80;66.00;101137.53;4966708;28;119790;-75
2021/08/27 10:00:38;;;;;;;8.90;3.97;;;;;;;19.78;66.28;101128.91;4966744;28;120029;-75
2021/08/27 10:03:17;;;;;;;8.65;3.50;;;;;;;19.67;66.30;101126.88;4983752;28;120291;-75
2021/08/27 10:05:43;;;;;;;8.38;3.58;;;;;;;19.62;66.28;101136.72;4984702;28;119890;-75
2021/08/27 10:08:20;;;;;;;8.27;3.67;;;;;;;19.53;66.64;101127.81;4982478;28;119572;-75
2021/08/27 10:10:49;;;;;;;9.85;3.33;;;;;;;19.49;67.14;101133.63;4981899;28;120189;-76
2021/08/27 10:13:17;;;;;;;9.55;3.88;;;;;;;19.45;67.49;101141.47;4983590;28;120469;-75
2021/08/27 10:15:43;;;;;;;9.73;3.90;;;;;;;19.40;67.39;101131.09;4954337;28;119609;-76
2021/08/27 10:18:10;;;;;;;11.07;5.10;;;;;;;19.44;67.52;101142.72;4963340;28;120128;-76
2021/08/27 10:20:38;;;;;;;7.88;3.88;;;;;;;19.41;67.54;101140.19;4976602;28;119669;-77
2021/08/27 10:23:06;;;;;;;8.32;3.45;;;;;;;19.40;67.58;101138.66;4968168;28;120584;-75
2021/08/27 10:25:32;;;;;;;9.45;3.78;;;;;;;19.41;67.41;101134.63;4979972;28;120108;-76
2021/08/27 10:27:58;;;;;;;7.22;3.33;;;;;;;19.39;67.88;101137.88;4968726;28;119677;-75
2021/08/27 10:30:58;;;;;;;9.10;3.40;;;;;;;19.47;68.00;101135.41;4949599;28;122124;-75
2021/08/27 10:33:39;;;;;;;10.90;3.60;;;;;;;19.47;67.96;101136.16;4967500;28;119741;-75
2021/08/27 10:36:23;;;;;;;7.57;3.67;;;;;;;19.50;68.07;101137.94;4964838;28;120969;-75
2021/08/27 10:38:51;;;;;;;;;;;;;;;19.52;67.99;101137.44;4978856;28;121149;-75
2021/08/27 10:41:27;;;;;;;6.75;3.35;;;;;;;19.58;68.20;101136.22;4980665;28;119720;-75
2021/08/27 10:44:07;;;;;;;5.40;3.13;;;;;;;19.62;67.92;101136.72;4949922;28;124608;-76
2021/08/27 10:46:45;;;;;;;6.60;3.00;;;;;;;19.69;68.32;101137.50;4982779;28;120173;-76
2021/08/27 10:49:46;;;;;;;5.55;3.33;;;;;;;19.78;68.08;101132.47;4973127;28;119685;-75
2021/08/27 10:52:22;;;;;;;8.93;3.35;;;;;;;19.89;68.04;101137.31;4930394;28;120032;-76
2021/08/27 10:55:11;;;;;;;7.38;3.08;;;;;;;19.93;67.44;101137.81;4982811;28;120338;-76
2021/08/27 10:57:45;;;;;;;8.65;2.78;;;;;;;19.97;67.11;101137.56;4964101;28;119933;-75
2021/08/27 11:00:11;;;;;;;5.63;2.87;;;;;;;19.98;66.97;101139.84;4962056;28;121216;-76
2021/08/27 11:02:54;;;;;;;5.63;3.00;;;;;;;19.99;66.51;101146.91;4950563;28;120621;-76
2021/08/27 11:05:37;;;;;;;8.02;2.90;;;;;;;19.92;67.05;101142.63;4965059;28;120392;-75
2021/08/27 11:08:05;;;;;;;9.48;2.72;;;;;;;19.95;66.31;101140.84;4951666;28;119797;-75
2021/08/27 11:10:32;;;;;;;6.35;3.05;;;;;;;19.95;66.35;101146.41;4961825;28;120367;-76
2021/08/27 11:13:00;;;;;;;6.68;2.92;;;;;;;19.97;66.49;101149.44;4980502;28;120877;-76
2021/08/27 11:15:32;;;;;;;6.63;3.00;;;;;;;20.02;nan;101156.28;4979589;28;120681;-75
2021/08/27 11:18:16;;;;;;;3.92;2.40;;;;;;;20.06;66.64;101151.97;4968289;28;120332;-75
2021/08/27 11:20:44;;;;;;;5.90;2.80;;;;;;;20.05;66.71;101147.69;4967468;28;120113;-76
2021/08/27 11:23:11;;;;;;;5.57;2.70;;;;;;;20.11;66.39;101145.69;4981648;28;120084;-76
2021/08/27 11:25:59;;;;;;;8.55;2.88;;;;;;;20.18;66.64;101150.72;4965189;28;120099;-75